sensor_id;sensor_type;location;lat;lon;timestamp;temperature;humidity
27306;DHT22;14792;50.886;6.468;2023-11-25T00:00:08;2.80;99.90
27306;DHT22;14792;50.886;6.468;2023-11-25T00:03:06;2.80;99.90
27306;DHT22;14792;50.886;6.468;2023-11-25T00:06:08;2.70;99.90
27306;DHT22;14792;50.886;6.468;2023-11-25T00:09:10;2.60;99.90
27306;DHT22;14792;50.886;6.468;2023-11-25T00:12:11;2.60;99.90
27306;DHT22;14792;50.886;6.468;2023-11-25T00:15:13;2.60;99.90
27306;DHT22;14792;50.886;6.468;2023-11-25T00:18:14;2.60;99.90
27306;DHT22;14792;50.886;6.468;2023-11-25T00:21:16;2.60;99.90
27306;DHT22;14792;50.886;6.468;2023-11-25T00:24:17;2.50;99.90
27306;DHT22;14792;50.886;6.468;2023-11-25T00:27:19;2.50;99.90
27306;DHT22;14792;50.886;6.468;2023-11-25T00:30:21;2.60;99.90
27306;DHT22;14792;50.886;6.468;2023-11-25T00:33:22;2.60;99.90
27306;DHT22;14792;50.886;6.468;2023-11-25T00:36:24;2.60;99.90
27306;DHT22;14792;50.886;6.468;2023-11-25T00:39:26;2.60;99.90
27306;DHT22;14792;50.886;6.468;2023-11-25T00:42:31;2.60;99.90
27306;DHT22;14792;50.886;6.468;2023-11-25T00:45:32;2.70;99.90
27306;DHT22;14792;50.886;6.468;2023-11-25T00:48:34;2.70;99.90
27306;DHT22;14792;50.886;6.468;2023-11-25T00:51:35;2.70;99.90
27306;DHT22;14792;50.886;6.468;2023-11-25T00:54:37;2.60;99.90
27306;DHT22;14792;50.886;6.468;2023-11-25T00:57:38;2.60;99.90
27306;DHT22;14792;50.886;6.468;2023-11-25T01:00:40;2.60;99.90
27306;DHT22;14792;50.886;6.468;2023-11-25T01:03:42;2.70;99.90
27306;DHT22;14792;50.886;6.468;2023-11-25T01:06:46;2.70;99.90
27306;DHT22;14792;50.886;6.468;2023-11-25T01:09:47;2.70;99.90
27306;DHT22;14792;50.886;6.468;2023-11-25T01:12:49;2.70;99.90
27306;DHT22;14792;50.886;6.468;2023-11-25T01:15:51;2.70;99.90
27306;DHT22;14792;50.886;6.468;2023-11-25T01:18:52;2.80;99.90
27306;DHT22;14792;50.886;6.468;2023-11-25T01:21:54;2.80;99.90
27306;DHT22;14792;50.886;6.468;2023-11-25T01:24:56;2.90;99.90
27306;DHT22;14792;50.886;6.468;2023-11-25T01:27:57;2.90;99.90
27306;DHT22;14792;50.886;6.468;2023-11-25T01:30:59;2.80;99.90
27306;DHT22;14792;50.886;6.468;2023-11-25T01:34:00;2.80;99.90
27306;DHT22;14792;50.886;6.468;2023-11-25T01:37:02;2.80;99.90
27306;DHT22;14792;50.886;6.468;2023-11-25T01:40:04;2.80;99.90
27306;DHT22;14792;50.886;6.468;2023-11-25T01:43:09;2.80;99.90
27306;DHT22;14792;50.886;6.468;2023-11-25T01:46:09;2.70;99.90
27306;DHT22;14792;50.886;6.468;2023-11-25T01:49:12;2.70;99.90
27306;DHT22;14792;50.886;6.468;2023-11-25T01:52:12;2.70;99.90
27306;DHT22;14792;50.886;6.468;2023-11-25T01:55:14;2.70;99.90
27306;DHT22;14792;50.886;6.468;2023-11-25T01:58:16;2.70;99.90
27306;DHT22;14792;50.886;6.468;2023-11-25T02:01:17;2.60;99.90
27306;DHT22;14792;50.886;6.468;2023-11-25T02:04:19;2.60;99.90
27306;DHT22;14792;50.886;6.468;2023-11-25T02:07:21;2.60;99.90
27306;DHT22;14792;50.886;6.468;2023-11-25T02:10:22;2.60;99.90
27306;DHT22;14792;50.886;6.468;2023-11-25T02:13:24;2.60;99.90
27306;DHT22;14792;50.886;6.468;2023-11-25T02:16:25;2.60;99.90
27306;DHT22;14792;50.886;6.468;2023-11-25T02:19:27;2.50;99.90
27306;DHT22;14792;50.886;6.468;2023-11-25T02:22:28;2.50;99.90
27306;DHT22;14792;50.886;6.468;2023-11-25T02:25:30;2.50;99.90
27306;DHT22;14792;50.886;6.468;2023-11-25T02:28:31;2.50;99.90
27306;DHT22;14792;50.886;6.468;2023-11-25T02:31:33;2.50;99.90
27306;DHT22;14792;50.886;6.468;2023-11-25T02:34:35;2.50;99.90
27306;DHT22;14792;50.886;6.468;2023-11-25T02:37:36;2.40;99.90
27306;DHT22;14792;50.886;6.468;2023-11-25T02:40:38;2.40;99.90
27306;DHT22;14792;50.886;6.468;2023-11-25T02:43:39;2.40;99.90
27306;DHT22;14792;50.886;6.468;2023-11-25T02:46:46;2.30;99.90
27306;DHT22;14792;50.886;6.468;2023-11-25T02:49:45;2.30;99.90
27306;DHT22;14792;50.886;6.468;2023-11-25T02:52:47;2.40;99.90
27306;DHT22;14792;50.886;6.468;2023-11-25T02:55:48;2.30;99.90
27306;DHT22;14792;50.886;6.468;2023-11-25T02:58:50;2.30;99.90
27306;DHT22;14792;50.886;6.468;2023-11-25T03:01:51;2.20;99.90
27306;DHT22;14792;50.886;6.468;2023-11-25T03:04:53;2.20;99.90
27306;DHT22;14792;50.886;6.468;2023-11-25T03:07:54;2.20;99.90
27306;DHT22;14792;50.886;6.468;2023-11-25T03:10:57;2.20;99.90
27306;DHT22;14792;50.886;6.468;2023-11-25T03:13:59;2.20;99.90
27306;DHT22;14792;50.886;6.468;2023-11-25T03:17:00;2.20;99.90
27306;DHT22;14792;50.886;6.468;2023-11-25T03:20:02;2.20;99.90
27306;DHT22;14792;50.886;6.468;2023-11-25T03:23:03;2.20;99.90
27306;DHT22;14792;50.886;6.468;2023-11-25T03:26:05;2.20;99.90
27306;DHT22;14792;50.886;6.468;2023-11-25T03:29:06;2.20;99.90
27306;DHT22;14792;50.886;6.468;2023-11-25T03:32:08;2.20;99.90
27306;DHT22;14792;50.886;6.468;2023-11-25T03:35:10;2.20;99.90
27306;DHT22;14792;50.886;6.468;2023-11-25T03:38:11;2.20;99.90
27306;DHT22;14792;50.886;6.468;2023-11-25T03:41:13;2.20;99.90
27306;DHT22;14792;50.886;6.468;2023-11-25T03:44:14;2.20;99.90
27306;DHT22;14792;50.886;6.468;2023-11-25T03:47:16;2.10;99.90
27306;DHT22;14792;50.886;6.468;2023-11-25T03:50:18;2.10;99.90
27306;DHT22;14792;50.886;6.468;2023-11-25T03:53:19;2.10;99.90
27306;DHT22;14792;50.886;6.468;2023-11-25T03:56:21;2.10;99.90
27306;DHT22;14792;50.886;6.468;2023-11-25T03:59:22;2.10;99.90
27306;DHT22;14792;50.886;6.468;2023-11-25T04:02:24;2.10;99.90
27306;DHT22;14792;50.886;6.468;2023-11-25T04:05:25;2.20;99.90
27306;DHT22;14792;50.886;6.468;2023-11-25T04:08:27;2.30;99.90
27306;DHT22;14792;50.886;6.468;2023-11-25T04:11:29;2.30;99.90
27306;DHT22;14792;50.886;6.468;2023-11-25T04:14:30;2.30;99.90
27306;DHT22;14792;50.886;6.468;2023-11-25T04:17:32;2.30;99.90
27306;DHT22;14792;50.886;6.468;2023-11-25T04:20:33;2.30;99.90
27306;DHT22;14792;50.886;6.468;2023-11-25T04:23:35;2.30;99.90
27306;DHT22;14792;50.886;6.468;2023-11-25T04:26:37;2.30;99.90
27306;DHT22;14792;50.886;6.468;2023-11-25T04:29:40;2.30;99.90
27306;DHT22;14792;50.886;6.468;2023-11-25T04:32:40;2.30;99.90
27306;DHT22;14792;50.886;6.468;2023-11-25T04:35:41;2.40;99.90
27306;DHT22;14792;50.886;6.468;2023-11-25T04:38:43;2.40;99.90
27306;DHT22;14792;50.886;6.468;2023-11-25T04:41:44;2.40;99.90
27306;DHT22;14792;50.886;6.468;2023-11-25T04:44:46;2.50;99.90
27306;DHT22;14792;50.886;6.468;2023-11-25T04:47:48;2.50;99.90
27306;DHT22;14792;50.886;6.468;2023-11-25T04:50:49;2.60;99.90
27306;DHT22;14792;50.886;6.468;2023-11-25T04:53:51;2.60;99.90
27306;DHT22;14792;50.886;6.468;2023-11-25T04:56:52;2.60;99.90
27306;DHT22;14792;50.886;6.468;2023-11-25T04:59:54;2.70;99.90
27306;DHT22;14792;50.886;6.468;2023-11-25T05:02:56;2.60;99.90
27306;DHT22;14792;50.886;6.468;2023-11-25T05:05:57;2.60;99.90
27306;DHT22;14792;50.886;6.468;2023-11-25T05:08:59;2.70;99.90
27306;DHT22;14792;50.886;6.468;2023-11-25T05:12:00;2.60;99.90
27306;DHT22;14792;50.886;6.468;2023-11-25T05:15:02;2.60;99.90
27306;DHT22;14792;50.886;6.468;2023-11-25T05:18:03;2.50;99.90
27306;DHT22;14792;50.886;6.468;2023-11-25T05:21:05;2.50;99.90
27306;DHT22;14792;50.886;6.468;2023-11-25T05:24:07;2.50;99.90
27306;DHT22;14792;50.886;6.468;2023-11-25T05:27:08;2.40;99.90
27306;DHT22;14792;50.886;6.468;2023-11-25T05:30:10;2.50;99.90
27306;DHT22;14792;50.886;6.468;2023-11-25T05:33:11;2.50;99.90
27306;DHT22;14792;50.886;6.468;2023-11-25T05:36:13;2.60;99.90
27306;DHT22;14792;50.886;6.468;2023-11-25T05:39:15;2.60;99.90
27306;DHT22;14792;50.886;6.468;2023-11-25T05:42:16;2.60;99.90
27306;DHT22;14792;50.886;6.468;2023-11-25T05:45:18;2.70;99.90
27306;DHT22;14792;50.886;6.468;2023-11-25T05:48:20;2.70;99.90
27306;DHT22;14792;50.886;6.468;2023-11-25T05:51:21;2.70;99.90
27306;DHT22;14792;50.886;6.468;2023-11-25T05:54:23;2.70;99.90
27306;DHT22;14792;50.886;6.468;2023-11-25T05:57:24;2.80;99.90
27306;DHT22;14792;50.886;6.468;2023-11-25T06:00:28;2.80;99.90
27306;DHT22;14792;50.886;6.468;2023-11-25T06:03:30;2.80;99.90
27306;DHT22;14792;50.886;6.468;2023-11-25T06:06:31;2.80;99.90
27306;DHT22;14792;50.886;6.468;2023-11-25T06:09:33;2.80;99.90
27306;DHT22;14792;50.886;6.468;2023-11-25T06:12:34;2.90;99.90
27306;DHT22;14792;50.886;6.468;2023-11-25T06:15:36;2.90;99.90
27306;DHT22;14792;50.886;6.468;2023-11-25T06:18:38;3.00;99.90
27306;DHT22;14792;50.886;6.468;2023-11-25T06:21:39;3.00;99.90
27306;DHT22;14792;50.886;6.468;2023-11-25T06:24:41;3.10;99.90
27306;DHT22;14792;50.886;6.468;2023-11-25T06:27:42;3.10;99.90
27306;DHT22;14792;50.886;6.468;2023-11-25T06:30:44;3.10;99.90
27306;DHT22;14792;50.886;6.468;2023-11-25T06:33:46;3.10;99.90
27306;DHT22;14792;50.886;6.468;2023-11-25T06:36:47;3.20;99.90
27306;DHT22;14792;50.886;6.468;2023-11-25T06:39:49;3.20;99.90
27306;DHT22;14792;50.886;6.468;2023-11-25T06:42:50;3.30;99.90
27306;DHT22;14792;50.886;6.468;2023-11-25T06:45:52;3.30;99.90
27306;DHT22;14792;50.886;6.468;2023-11-25T06:48:53;3.30;99.90
27306;DHT22;14792;50.886;6.468;2023-11-25T06:51:55;3.40;99.90
27306;DHT22;14792;50.886;6.468;2023-11-25T06:54:57;3.50;99.90
27306;DHT22;14792;50.886;6.468;2023-11-25T06:57:58;3.60;99.90
27306;DHT22;14792;50.886;6.468;2023-11-25T07:01:00;3.70;99.90
27306;DHT22;14792;50.886;6.468;2023-11-25T07:04:02;3.80;99.90
27306;DHT22;14792;50.886;6.468;2023-11-25T07:07:03;3.80;99.90
27306;DHT22;14792;50.886;6.468;2023-11-25T07:10:05;3.80;99.90
27306;DHT22;14792;50.886;6.468;2023-11-25T07:13:06;3.80;99.90
27306;DHT22;14792;50.886;6.468;2023-11-25T07:16:08;3.80;99.90
27306;DHT22;14792;50.886;6.468;2023-11-25T07:19:10;3.80;99.90
27306;DHT22;14792;50.886;6.468;2023-11-25T07:22:11;3.80;99.90
27306;DHT22;14792;50.886;6.468;2023-11-25T07:25:13;3.80;99.90
27306;DHT22;14792;50.886;6.468;2023-11-25T07:28:14;3.80;99.90
27306;DHT22;14792;50.886;6.468;2023-11-25T07:31:16;3.80;99.90
27306;DHT22;14792;50.886;6.468;2023-11-25T07:34:17;3.80;99.90
27306;DHT22;14792;50.886;6.468;2023-11-25T07:37:19;3.70;99.90
27306;DHT22;14792;50.886;6.468;2023-11-25T07:40:21;3.80;99.90
27306;DHT22;14792;50.886;6.468;2023-11-25T07:43:22;3.70;99.90
27306;DHT22;14792;50.886;6.468;2023-11-25T07:46:24;3.80;99.90
27306;DHT22;14792;50.886;6.468;2023-11-25T07:49:26;3.80;99.90
27306;DHT22;14792;50.886;6.468;2023-11-25T07:52:27;3.70;99.90
27306;DHT22;14792;50.886;6.468;2023-11-25T07:55:29;3.70;99.90
27306;DHT22;14792;50.886;6.468;2023-11-25T07:58:30;3.70;99.90
27306;DHT22;14792;50.886;6.468;2023-11-25T08:01:32;3.70;99.90
27306;DHT22;14792;50.886;6.468;2023-11-25T08:04:33;3.70;99.90
27306;DHT22;14792;50.886;6.468;2023-11-25T08:07:35;3.80;99.90
27306;DHT22;14792;50.886;6.468;2023-11-25T08:10:37;3.90;99.90
27306;DHT22;14792;50.886;6.468;2023-11-25T08:13:39;4.00;99.90
27306;DHT22;14792;50.886;6.468;2023-11-25T08:16:40;4.00;99.90
27306;DHT22;14792;50.886;6.468;2023-11-25T08:19:41;4.00;99.90
27306;DHT22;14792;50.886;6.468;2023-11-25T08:22:43;4.00;99.90
27306;DHT22;14792;50.886;6.468;2023-11-25T08:25:44;4.10;99.90
27306;DHT22;14792;50.886;6.468;2023-11-25T08:28:47;4.10;99.90
27306;DHT22;14792;50.886;6.468;2023-11-25T08:31:48;4.10;99.90
27306;DHT22;14792;50.886;6.468;2023-11-25T08:34:49;4.10;99.90
27306;DHT22;14792;50.886;6.468;2023-11-25T08:37:51;4.10;99.90
27306;DHT22;14792;50.886;6.468;2023-11-25T08:40:52;4.20;99.90
27306;DHT22;14792;50.886;6.468;2023-11-25T08:43:54;4.20;99.90
27306;DHT22;14792;50.886;6.468;2023-11-25T08:46:56;4.30;99.90
27306;DHT22;14792;50.886;6.468;2023-11-25T08:49:57;4.30;99.90
27306;DHT22;14792;50.886;6.468;2023-11-25T08:52:59;4.30;99.90
27306;DHT22;14792;50.886;6.468;2023-11-25T08:56:01;4.30;99.90
27306;DHT22;14792;50.886;6.468;2023-11-25T08:59:02;4.40;99.90
27306;DHT22;14792;50.886;6.468;2023-11-25T09:02:03;4.40;99.90
27306;DHT22;14792;50.886;6.468;2023-11-25T09:05:05;4.40;99.90
27306;DHT22;14792;50.886;6.468;2023-11-25T09:08:07;4.50;99.90
27306;DHT22;14792;50.886;6.468;2023-11-25T09:11:08;4.50;99.90
27306;DHT22;14792;50.886;6.468;2023-11-25T09:14:10;4.60;99.90
27306;DHT22;14792;50.886;6.468;2023-11-25T09:17:11;4.70;99.90
27306;DHT22;14792;50.886;6.468;2023-11-25T09:20:15;4.60;99.90
27306;DHT22;14792;50.886;6.468;2023-11-25T09:23:15;4.70;99.90
27306;DHT22;14792;50.886;6.468;2023-11-25T09:26:16;4.60;99.90
27306;DHT22;14792;50.886;6.468;2023-11-25T09:29:18;4.60;99.90
27306;DHT22;14792;50.886;6.468;2023-11-25T09:32:19;4.70;99.90
27306;DHT22;14792;50.886;6.468;2023-11-25T09:35:21;4.60;99.90
27306;DHT22;14792;50.886;6.468;2023-11-25T09:38:23;4.60;99.90
27306;DHT22;14792;50.886;6.468;2023-11-25T09:41:24;4.60;99.90
27306;DHT22;14792;50.886;6.468;2023-11-25T09:44:26;4.70;99.90
27306;DHT22;14792;50.886;6.468;2023-11-25T09:47:27;4.80;99.90
27306;DHT22;14792;50.886;6.468;2023-11-25T09:50:29;4.80;99.90
27306;DHT22;14792;50.886;6.468;2023-11-25T09:53:30;4.80;99.90
27306;DHT22;14792;50.886;6.468;2023-11-25T09:56:32;5.00;99.90
27306;DHT22;14792;50.886;6.468;2023-11-25T09:59:34;5.30;99.90
27306;DHT22;14792;50.886;6.468;2023-11-25T10:02:35;5.30;99.90
27306;DHT22;14792;50.886;6.468;2023-11-25T10:05:37;5.30;99.90
27306;DHT22;14792;50.886;6.468;2023-11-25T10:08:38;5.40;99.90
27306;DHT22;14792;50.886;6.468;2023-11-25T10:11:40;5.40;99.90
27306;DHT22;14792;50.886;6.468;2023-11-25T10:14:44;5.40;99.90
27306;DHT22;14792;50.886;6.468;2023-11-25T10:17:46;5.40;99.90
27306;DHT22;14792;50.886;6.468;2023-11-25T10:20:47;5.50;99.90
27306;DHT22;14792;50.886;6.468;2023-11-25T10:23:50;5.50;99.90
27306;DHT22;14792;50.886;6.468;2023-11-25T10:26:51;5.50;99.90
27306;DHT22;14792;50.886;6.468;2023-11-25T10:29:53;5.60;99.90
27306;DHT22;14792;50.886;6.468;2023-11-25T10:32:54;5.70;99.90
27306;DHT22;14792;50.886;6.468;2023-11-25T10:35:55;5.80;99.90
27306;DHT22;14792;50.886;6.468;2023-11-25T10:38:58;5.90;99.90
27306;DHT22;14792;50.886;6.468;2023-11-25T10:41:58;5.80;99.90
27306;DHT22;14792;50.886;6.468;2023-11-25T10:45:00;5.80;99.90
27306;DHT22;14792;50.886;6.468;2023-11-25T10:48:02;5.70;99.90
27306;DHT22;14792;50.886;6.468;2023-11-25T10:51:03;5.80;99.90
27306;DHT22;14792;50.886;6.468;2023-11-25T10:54:06;5.90;99.90
27306;DHT22;14792;50.886;6.468;2023-11-25T10:57:06;5.90;99.90
27306;DHT22;14792;50.886;6.468;2023-11-25T11:00:08;5.80;99.90
27306;DHT22;14792;50.886;6.468;2023-11-25T11:03:12;5.70;99.90
27306;DHT22;14792;50.886;6.468;2023-11-25T11:06:15;5.70;99.90
27306;DHT22;14792;50.886;6.468;2023-11-25T11:09:18;5.80;99.90
27306;DHT22;14792;50.886;6.468;2023-11-25T11:12:23;5.90;99.90
27306;DHT22;14792;50.886;6.468;2023-11-25T11:15:21;6.00;99.90
27306;DHT22;14792;50.886;6.468;2023-11-25T11:18:23;5.90;99.90
27306;DHT22;14792;50.886;6.468;2023-11-25T11:21:25;6.10;99.90
27306;DHT22;14792;50.886;6.468;2023-11-25T11:24:28;6.20;99.90
27306;DHT22;14792;50.886;6.468;2023-11-25T11:27:33;6.20;99.90
27306;DHT22;14792;50.886;6.468;2023-11-25T11:30:47;6.20;99.90
27306;DHT22;14792;50.886;6.468;2023-11-25T11:33:46;6.20;99.90
27306;DHT22;14792;50.886;6.468;2023-11-25T11:36:47;6.10;99.90
27306;DHT22;14792;50.886;6.468;2023-11-25T11:42:54;6.30;99.90
27306;DHT22;14792;50.886;6.468;2023-11-25T11:45:55;6.70;99.90
27306;DHT22;14792;50.886;6.468;2023-11-25T11:48:57;6.80;99.90
27306;DHT22;14792;50.886;6.468;2023-11-25T11:52:01;6.70;99.90
27306;DHT22;14792;50.886;6.468;2023-11-25T11:58:22;6.90;99.90
27306;DHT22;14792;50.886;6.468;2023-11-25T12:01:23;7.20;99.90
27306;DHT22;14792;50.886;6.468;2023-11-25T12:04:25;7.30;99.90
27306;DHT22;14792;50.886;6.468;2023-11-25T12:07:27;7.30;99.90
27306;DHT22;14792;50.886;6.468;2023-11-25T12:10:28;7.20;99.90
27306;DHT22;14792;50.886;6.468;2023-11-25T12:13:30;7.10;99.90
27306;DHT22;14792;50.886;6.468;2023-11-25T12:16:31;7.20;99.90
27306;DHT22;14792;50.886;6.468;2023-11-25T12:19:33;7.20;99.90
27306;DHT22;14792;50.886;6.468;2023-11-25T12:22:34;7.10;99.90
27306;DHT22;14792;50.886;6.468;2023-11-25T12:25:36;7.10;99.90
27306;DHT22;14792;50.886;6.468;2023-11-25T12:28:41;6.90;99.90
27306;DHT22;14792;50.886;6.468;2023-11-25T12:31:43;6.90;99.90
27306;DHT22;14792;50.886;6.468;2023-11-25T12:34:44;6.80;99.90
27306;DHT22;14792;50.886;6.468;2023-11-25T12:37:45;6.70;99.90
27306;DHT22;14792;50.886;6.468;2023-11-25T12:40:47;6.70;99.90
27306;DHT22;14792;50.886;6.468;2023-11-25T12:44:03;6.80;99.90
27306;DHT22;14792;50.886;6.468;2023-11-25T12:47:05;7.10;99.90
27306;DHT22;14792;50.886;6.468;2023-11-25T12:50:06;6.90;99.90
27306;DHT22;14792;50.886;6.468;2023-11-25T12:53:08;7.00;99.90
27306;DHT22;14792;50.886;6.468;2023-11-25T12:56:13;6.90;99.90
27306;DHT22;14792;50.886;6.468;2023-11-25T12:59:24;6.90;99.90
27306;DHT22;14792;50.886;6.468;2023-11-25T13:02:16;6.90;99.90
27306;DHT22;14792;50.886;6.468;2023-11-25T13:05:20;6.90;99.90
27306;DHT22;14792;50.886;6.468;2023-11-25T13:08:26;6.80;99.90
27306;DHT22;14792;50.886;6.468;2023-11-25T13:11:26;6.80;99.90
27306;DHT22;14792;50.886;6.468;2023-11-25T13:14:28;6.80;99.90
27306;DHT22;14792;50.886;6.468;2023-11-25T13:17:30;6.80;99.90
27306;DHT22;14792;50.886;6.468;2023-11-25T13:20:31;6.80;99.90
27306;DHT22;14792;50.886;6.468;2023-11-25T13:23:33;6.90;99.90
27306;DHT22;14792;50.886;6.468;2023-11-25T13:26:35;6.90;99.90
27306;DHT22;14792;50.886;6.468;2023-11-25T13:29:36;6.90;99.90
27306;DHT22;14792;50.886;6.468;2023-11-25T13:32:38;6.90;99.90
27306;DHT22;14792;50.886;6.468;2023-11-25T13:35:39;6.90;99.90
27306;DHT22;14792;50.886;6.468;2023-11-25T13:38:41;6.90;99.90
27306;DHT22;14792;50.886;6.468;2023-11-25T13:41:42;6.80;99.90
27306;DHT22;14792;50.886;6.468;2023-11-25T13:44:44;6.80;99.90
27306;DHT22;14792;50.886;6.468;2023-11-25T13:47:46;6.80;99.90
27306;DHT22;14792;50.886;6.468;2023-11-25T13:50:47;6.80;99.90
27306;DHT22;14792;50.886;6.468;2023-11-25T13:53:49;6.80;99.90
27306;DHT22;14792;50.886;6.468;2023-11-25T13:56:50;6.80;99.90
27306;DHT22;14792;50.886;6.468;2023-11-25T13:59:52;6.80;99.90
27306;DHT22;14792;50.886;6.468;2023-11-25T14:02:54;6.80;99.90
27306;DHT22;14792;50.886;6.468;2023-11-25T14:05:55;6.90;99.90
27306;DHT22;14792;50.886;6.468;2023-11-25T14:08:57;6.90;99.90
27306;DHT22;14792;50.886;6.468;2023-11-25T14:11:58;6.90;99.90
27306;DHT22;14792;50.886;6.468;2023-11-25T14:15:00;6.90;99.90
27306;DHT22;14792;50.886;6.468;2023-11-25T14:18:02;6.90;99.90
27306;DHT22;14792;50.886;6.468;2023-11-25T14:21:03;6.90;99.90
27306;DHT22;14792;50.886;6.468;2023-11-25T14:24:05;6.80;99.90
27306;DHT22;14792;50.886;6.468;2023-11-25T14:27:06;6.90;99.90
27306;DHT22;14792;50.886;6.468;2023-11-25T14:30:08;6.80;99.90
27306;DHT22;14792;50.886;6.468;2023-11-25T14:33:10;6.80;99.90
27306;DHT22;14792;50.886;6.468;2023-11-25T14:36:11;6.80;99.90
27306;DHT22;14792;50.886;6.468;2023-11-25T14:39:13;6.80;99.90
27306;DHT22;14792;50.886;6.468;2023-11-25T14:42:15;6.70;99.90
27306;DHT22;14792;50.886;6.468;2023-11-25T14:45:16;6.70;99.90
27306;DHT22;14792;50.886;6.468;2023-11-25T14:48:17;6.70;99.90
27306;DHT22;14792;50.886;6.468;2023-11-25T14:51:19;6.70;99.90
27306;DHT22;14792;50.886;6.468;2023-11-25T14:54:21;6.70;99.90
27306;DHT22;14792;50.886;6.468;2023-11-25T14:57:22;6.70;99.90
27306;DHT22;14792;50.886;6.468;2023-11-25T15:00:24;6.70;99.90
27306;DHT22;14792;50.886;6.468;2023-11-25T15:03:25;6.70;99.90
27306;DHT22;14792;50.886;6.468;2023-11-25T15:06:27;6.70;99.90
27306;DHT22;14792;50.886;6.468;2023-11-25T15:09:29;6.60;99.90
27306;DHT22;14792;50.886;6.468;2023-11-25T15:12:30;6.60;99.90
27306;DHT22;14792;50.886;6.468;2023-11-25T15:15:32;6.60;99.90
27306;DHT22;14792;50.886;6.468;2023-11-25T15:18:33;6.60;99.90
27306;DHT22;14792;50.886;6.468;2023-11-25T15:21:35;6.60;99.90
27306;DHT22;14792;50.886;6.468;2023-11-25T15:24:39;6.60;99.90
27306;DHT22;14792;50.886;6.468;2023-11-25T15:27:41;6.50;99.90
27306;DHT22;14792;50.886;6.468;2023-11-25T15:30:42;6.50;99.90
27306;DHT22;14792;50.886;6.468;2023-11-25T15:33:44;6.50;99.90
27306;DHT22;14792;50.886;6.468;2023-11-25T15:36:46;6.50;99.90
27306;DHT22;14792;50.886;6.468;2023-11-25T15:39:47;6.40;99.90
27306;DHT22;14792;50.886;6.468;2023-11-25T15:42:49;6.40;99.90
27306;DHT22;14792;50.886;6.468;2023-11-25T15:45:51;6.40;99.90
27306;DHT22;14792;50.886;6.468;2023-11-25T15:48:52;6.40;99.90
27306;DHT22;14792;50.886;6.468;2023-11-25T15:51:54;6.30;99.90
27306;DHT22;14792;50.886;6.468;2023-11-25T15:54:55;6.30;99.90
27306;DHT22;14792;50.886;6.468;2023-11-25T15:57:57;6.30;99.90
27306;DHT22;14792;50.886;6.468;2023-11-25T16:00:59;6.30;99.90
27306;DHT22;14792;50.886;6.468;2023-11-25T16:04:01;6.20;99.90
27306;DHT22;14792;50.886;6.468;2023-11-25T16:07:03;6.20;99.90
27306;DHT22;14792;50.886;6.468;2023-11-25T16:10:04;6.20;99.90
27306;DHT22;14792;50.886;6.468;2023-11-25T16:13:09;6.30;99.90
27306;DHT22;14792;50.886;6.468;2023-11-25T16:16:10;6.20;99.90
27306;DHT22;14792;50.886;6.468;2023-11-25T16:19:12;6.20;99.90
27306;DHT22;14792;50.886;6.468;2023-11-25T16:22:13;6.20;99.90
27306;DHT22;14792;50.886;6.468;2023-11-25T16:25:15;6.20;99.90
27306;DHT22;14792;50.886;6.468;2023-11-25T16:28:17;6.20;99.90
27306;DHT22;14792;50.886;6.468;2023-11-25T16:31:18;6.10;99.90
27306;DHT22;14792;50.886;6.468;2023-11-25T16:34:20;6.10;99.90
27306;DHT22;14792;50.886;6.468;2023-11-25T16:37:21;6.10;99.90
27306;DHT22;14792;50.886;6.468;2023-11-25T16:40:23;6.10;99.90
27306;DHT22;14792;50.886;6.468;2023-11-25T16:43:24;6.10;99.90
27306;DHT22;14792;50.886;6.468;2023-11-25T16:46:26;6.00;99.90
27306;DHT22;14792;50.886;6.468;2023-11-25T16:49:29;6.00;99.90
27306;DHT22;14792;50.886;6.468;2023-11-25T16:52:31;6.00;99.90
27306;DHT22;14792;50.886;6.468;2023-11-25T16:55:32;6.00;99.90
27306;DHT22;14792;50.886;6.468;2023-11-25T16:58:34;6.00;99.90
27306;DHT22;14792;50.886;6.468;2023-11-25T17:01:36;6.00;99.90
27306;DHT22;14792;50.886;6.468;2023-11-25T17:04:37;6.00;99.90
27306;DHT22;14792;50.886;6.468;2023-11-25T17:07:39;6.00;99.90
27306;DHT22;14792;50.886;6.468;2023-11-25T17:10:40;6.00;99.90
27306;DHT22;14792;50.886;6.468;2023-11-25T17:13:42;6.00;99.90
27306;DHT22;14792;50.886;6.468;2023-11-25T17:16:46;6.00;99.90
27306;DHT22;14792;50.886;6.468;2023-11-25T17:19:45;6.00;99.90
27306;DHT22;14792;50.886;6.468;2023-11-25T17:22:47;5.90;99.90
27306;DHT22;14792;50.886;6.468;2023-11-25T17:25:48;5.90;99.90
27306;DHT22;14792;50.886;6.468;2023-11-25T17:28:50;5.80;99.90
27306;DHT22;14792;50.886;6.468;2023-11-25T17:31:51;5.80;99.90
27306;DHT22;14792;50.886;6.468;2023-11-25T17:34:53;5.80;99.90
27306;DHT22;14792;50.886;6.468;2023-11-25T17:37:55;5.80;99.90
27306;DHT22;14792;50.886;6.468;2023-11-25T17:40:59;5.70;99.90
27306;DHT22;14792;50.886;6.468;2023-11-25T17:44:01;5.70;99.90
27306;DHT22;14792;50.886;6.468;2023-11-25T17:47:02;5.70;99.90
27306;DHT22;14792;50.886;6.468;2023-11-25T17:50:04;5.60;99.90
27306;DHT22;14792;50.886;6.468;2023-11-25T17:53:06;5.60;99.90
27306;DHT22;14792;50.886;6.468;2023-11-25T17:56:07;5.60;99.90
27306;DHT22;14792;50.886;6.468;2023-11-25T17:59:09;5.60;99.90
27306;DHT22;14792;50.886;6.468;2023-11-25T18:02:10;5.60;99.90
27306;DHT22;14792;50.886;6.468;2023-11-25T18:05:12;5.60;99.90
27306;DHT22;14792;50.886;6.468;2023-11-25T18:08:14;5.50;99.90
27306;DHT22;14792;50.886;6.468;2023-11-25T18:11:15;5.40;99.90
27306;DHT22;14792;50.886;6.468;2023-11-25T18:14:17;5.40;99.90
27306;DHT22;14792;50.886;6.468;2023-11-25T18:17:18;5.30;99.90
27306;DHT22;14792;50.886;6.468;2023-11-25T18:20:20;5.30;99.90
27306;DHT22;14792;50.886;6.468;2023-11-25T18:23:22;5.40;99.90
27306;DHT22;14792;50.886;6.468;2023-11-25T18:26:23;5.40;99.90
27306;DHT22;14792;50.886;6.468;2023-11-25T18:29:25;5.40;99.90
27306;DHT22;14792;50.886;6.468;2023-11-25T18:32:26;5.40;99.90
27306;DHT22;14792;50.886;6.468;2023-11-25T18:35:28;5.40;99.90
27306;DHT22;14792;50.886;6.468;2023-11-25T18:38:29;5.30;99.90
27306;DHT22;14792;50.886;6.468;2023-11-25T18:41:31;5.40;99.90
27306;DHT22;14792;50.886;6.468;2023-11-25T18:44:33;5.40;99.90
27306;DHT22;14792;50.886;6.468;2023-11-25T18:47:34;5.30;99.90
27306;DHT22;14792;50.886;6.468;2023-11-25T18:50:36;5.30;99.90
27306;DHT22;14792;50.886;6.468;2023-11-25T18:53:37;5.30;99.90
27306;DHT22;14792;50.886;6.468;2023-11-25T18:56:39;5.40;99.90
27306;DHT22;14792;50.886;6.468;2023-11-25T18:59:46;5.30;99.90
27306;DHT22;14792;50.886;6.468;2023-11-25T19:02:51;5.30;99.90
27306;DHT22;14792;50.886;6.468;2023-11-25T19:05:52;5.30;99.90
27306;DHT22;14792;50.886;6.468;2023-11-25T19:08:54;5.20;99.90
27306;DHT22;14792;50.886;6.468;2023-11-25T19:11:55;5.20;99.90
27306;DHT22;14792;50.886;6.468;2023-11-25T19:14:57;5.20;99.90
27306;DHT22;14792;50.886;6.468;2023-11-25T19:17:59;5.20;99.90
27306;DHT22;14792;50.886;6.468;2023-11-25T19:21:00;5.20;99.90
27306;DHT22;14792;50.886;6.468;2023-11-25T19:24:02;5.20;99.90
27306;DHT22;14792;50.886;6.468;2023-11-25T19:27:03;5.20;99.90
27306;DHT22;14792;50.886;6.468;2023-11-25T19:30:05;5.20;99.90